sensor_id;sensor_type;location;lat;lon;timestamp;P1;durP1;ratioP1;P2;durP2;ratioP2
33357;SDS011;19717;42.614;23.418;2022-10-16T00:00:19;15.80;;;6.55;;
33357;SDS011;19717;42.614;23.418;2022-10-16T00:02:45;11.52;;;6.85;;
33357;SDS011;19717;42.614;23.418;2022-10-16T00:05:11;11.52;;;6.30;;
33357;SDS011;19717;42.614;23.418;2022-10-16T00:07:37;12.57;;;7.43;;
33357;SDS011;19717;42.614;23.418;2022-10-16T00:10:03;14.13;;;7.57;;
33357;SDS011;19717;42.614;23.418;2022-10-16T00:12:29;9.52;;;6.25;;
33357;SDS011;19717;42.614;23.418;2022-10-16T00:14:55;13.63;;;6.85;;
33357;SDS011;19717;42.614;23.418;2022-10-16T00:17:21;11.35;;;6.75;;
33357;SDS011;19717;42.614;23.418;2022-10-16T00:19:47;13.70;;;6.18;;
33357;SDS011;19717;42.614;23.418;2022-10-16T00:22:13;22.08;;;7.82;;
33357;SDS011;19717;42.614;23.418;2022-10-16T00:24:39;14.77;;;6.30;;
33357;SDS011;19717;42.614;23.418;2022-10-16T00:27:05;11.02;;;6.05;;
33357;SDS011;19717;42.614;23.418;2022-10-16T00:29:31;12.45;;;7.30;;
33357;SDS011;19717;42.614;23.418;2022-10-16T00:31:57;12.43;;;6.70;;
33357;SDS011;19717;42.614;23.418;2022-10-16T00:34:23;11.93;;;6.25;;
33357;SDS011;19717;42.614;23.418;2022-10-16T00:36:49;11.40;;;7.00;;
33357;SDS011;19717;42.614;23.418;2022-10-16T00:39:15;12.50;;;6.32;;
33357;SDS011;19717;42.614;23.418;2022-10-16T00:41:41;12.00;;;6.03;;
33357;SDS011;19717;42.614;23.418;2022-10-16T00:46:52;9.52;;;6.03;;
33357;SDS011;19717;42.614;23.418;2022-10-16T00:49:18;11.43;;;6.18;;
33357;SDS011;19717;42.614;23.418;2022-10-16T00:51:46;11.18;;;6.65;;
33357;SDS011;19717;42.614;23.418;2022-10-16T00:54:14;7.95;;;5.40;;
33357;SDS011;19717;42.614;23.418;2022-10-16T00:56:41;39.58;;;14.88;;
33357;SDS011;19717;42.614;23.418;2022-10-16T00:59:09;64.38;;;25.45;;
33357;SDS011;19717;42.614;23.418;2022-10-16T01:01:37;9.88;;;5.63;;
33357;SDS011;19717;42.614;23.418;2022-10-16T01:04:03;34.47;;;16.30;;
33357;SDS011;19717;42.614;23.418;2022-10-16T01:09:20;12.10;;;6.28;;
33357;SDS011;19717;42.614;23.418;2022-10-16T01:11:49;11.32;;;5.38;;
33357;SDS011;19717;42.614;23.418;2022-10-16T01:14:22;11.80;;;5.65;;
33357;SDS011;19717;42.614;23.418;2022-10-16T01:16:53;10.30;;;5.63;;
33357;SDS011;19717;42.614;23.418;2022-10-16T01:21:50;10.40;;;6.38;;
33357;SDS011;19717;42.614;23.418;2022-10-16T01:31:59;9.23;;;6.80;;
33357;SDS011;19717;42.614;23.418;2022-10-16T01:34:28;13.15;;;6.38;;
33357;SDS011;19717;42.614;23.418;2022-10-16T01:36:57;12.63;;;6.32;;
33357;SDS011;19717;42.614;23.418;2022-10-16T01:39:28;10.65;;;6.70;;
33357;SDS011;19717;42.614;23.418;2022-10-16T01:41:58;10.82;;;6.65;;
33357;SDS011;19717;42.614;23.418;2022-10-16T01:44:28;11.75;;;6.95;;
33357;SDS011;19717;42.614;23.418;2022-10-16T01:46:55;12.70;;;6.60;;
33357;SDS011;19717;42.614;23.418;2022-10-16T01:49:22;9.00;;;6.03;;
33357;SDS011;19717;42.614;23.418;2022-10-16T01:51:50;14.38;;;7.00;;
33357;SDS011;19717;42.614;23.418;2022-10-16T01:54:17;11.80;;;7.32;;
33357;SDS011;19717;42.614;23.418;2022-10-16T01:56:46;12.70;;;6.60;;
33357;SDS011;19717;42.614;23.418;2022-10-16T01:59:15;12.02;;;6.63;;
33357;SDS011;19717;42.614;23.418;2022-10-16T02:01:43;11.02;;;6.60;;
33357;SDS011;19717;42.614;23.418;2022-10-16T02:04:19;11.25;;;6.18;;
33357;SDS011;19717;42.614;23.418;2022-10-16T02:06:46;12.50;;;7.38;;
33357;SDS011;19717;42.614;23.418;2022-10-16T02:09:12;11.93;;;7.00;;
33357;SDS011;19717;42.614;23.418;2022-10-16T02:11:41;12.57;;;6.38;;
33357;SDS011;19717;42.614;23.418;2022-10-16T02:14:07;11.55;;;6.03;;
33357;SDS011;19717;42.614;23.418;2022-10-16T02:16:44;9.43;;;6.20;;
33357;SDS011;19717;42.614;23.418;2022-10-16T02:19:11;7.68;;;5.30;;
33357;SDS011;19717;42.614;23.418;2022-10-16T02:21:54;10.00;;;6.20;;
33357;SDS011;19717;42.614;23.418;2022-10-16T02:24:26;10.15;;;6.22;;
33357;SDS011;19717;42.614;23.418;2022-10-16T02:26:57;11.32;;;6.00;;
33357;SDS011;19717;42.614;23.418;2022-10-16T02:29:26;10.57;;;6.30;;
33357;SDS011;19717;42.614;23.418;2022-10-16T02:31:58;11.68;;;6.95;;
33357;SDS011;19717;42.614;23.418;2022-10-16T02:34:25;10.02;;;6.32;;
33357;SDS011;19717;42.614;23.418;2022-10-16T02:36:51;8.82;;;5.93;;
33357;SDS011;19717;42.614;23.418;2022-10-16T02:39:18;13.27;;;6.30;;
33357;SDS011;19717;42.614;23.418;2022-10-16T02:41:45;11.73;;;6.38;;
33357;SDS011;19717;42.614;23.418;2022-10-16T02:44:11;9.75;;;6.55;;
33357;SDS011;19717;42.614;23.418;2022-10-16T02:46:37;10.43;;;6.88;;
33357;SDS011;19717;42.614;23.418;2022-10-16T02:49:03;9.60;;;5.97;;
33357;SDS011;19717;42.614;23.418;2022-10-16T02:51:29;9.25;;;6.28;;
33357;SDS011;19717;42.614;23.418;2022-10-16T02:53:55;12.60;;;7.03;;
33357;SDS011;19717;42.614;23.418;2022-10-16T02:56:21;10.75;;;6.70;;
33357;SDS011;19717;42.614;23.418;2022-10-16T02:58:48;12.70;;;6.60;;
33357;SDS011;19717;42.614;23.418;2022-10-16T03:01:14;11.43;;;6.97;;
33357;SDS011;19717;42.614;23.418;2022-10-16T03:03:41;13.73;;;7.00;;
33357;SDS011;19717;42.614;23.418;2022-10-16T03:06:08;13.43;;;7.88;;
33357;SDS011;19717;42.614;23.418;2022-10-16T03:08:34;12.65;;;7.63;;
33357;SDS011;19717;42.614;23.418;2022-10-16T03:11:00;14.45;;;8.05;;
33357;SDS011;19717;42.614;23.418;2022-10-16T03:13:26;13.63;;;8.70;;
33357;SDS011;19717;42.614;23.418;2022-10-16T03:15:52;13.38;;;7.93;;
33357;SDS011;19717;42.614;23.418;2022-10-16T03:18:18;16.50;;;8.05;;
33357;SDS011;19717;42.614;23.418;2022-10-16T03:20:44;12.90;;;7.70;;
33357;SDS011;19717;42.614;23.418;2022-10-16T03:23:10;13.65;;;8.07;;
33357;SDS011;19717;42.614;23.418;2022-10-16T03:25:36;12.25;;;8.10;;
33357;SDS011;19717;42.614;23.418;2022-10-16T03:28:02;11.50;;;8.18;;
33357;SDS011;19717;42.614;23.418;2022-10-16T03:30:28;14.88;;;8.70;;
33357;SDS011;19717;42.614;23.418;2022-10-16T03:32:54;13.13;;;7.80;;
33357;SDS011;19717;42.614;23.418;2022-10-16T03:35:21;12.85;;;8.32;;
33357;SDS011;19717;42.614;23.418;2022-10-16T03:37:47;14.25;;;7.72;;
33357;SDS011;19717;42.614;23.418;2022-10-16T03:40:13;18.40;;;9.32;;
33357;SDS011;19717;42.614;23.418;2022-10-16T03:42:40;14.02;;;8.25;;
33357;SDS011;19717;42.614;23.418;2022-10-16T03:45:07;11.63;;;8.52;;
33357;SDS011;19717;42.614;23.418;2022-10-16T03:47:33;13.93;;;7.88;;
33357;SDS011;19717;42.614;23.418;2022-10-16T03:49:59;14.73;;;7.53;;
33357;SDS011;19717;42.614;23.418;2022-10-16T03:52:26;16.38;;;8.35;;
33357;SDS011;19717;42.614;23.418;2022-10-16T03:54:52;13.13;;;7.93;;
33357;SDS011;19717;42.614;23.418;2022-10-16T03:57:18;11.73;;;7.53;;
33357;SDS011;19717;42.614;23.418;2022-10-16T03:59:45;11.00;;;7.20;;
33357;SDS011;19717;42.614;23.418;2022-10-16T04:02:11;12.75;;;7.20;;
33357;SDS011;19717;42.614;23.418;2022-10-16T04:04:37;16.40;;;8.07;;
33357;SDS011;19717;42.614;23.418;2022-10-16T04:07:03;13.45;;;6.68;;
33357;SDS011;19717;42.614;23.418;2022-10-16T04:09:29;11.98;;;6.88;;
33357;SDS011;19717;42.614;23.418;2022-10-16T04:11:56;11.13;;;6.90;;
33357;SDS011;19717;42.614;23.418;2022-10-16T04:14:22;10.30;;;7.30;;
33357;SDS011;19717;42.614;23.418;2022-10-16T04:16:48;10.18;;;7.03;;
33357;SDS011;19717;42.614;23.418;2022-10-16T04:19:14;11.88;;;7.00;;
33357;SDS011;19717;42.614;23.418;2022-10-16T04:21:40;14.90;;;7.88;;
33357;SDS011;19717;42.614;23.418;2022-10-16T04:24:06;11.52;;;7.43;;
33357;SDS011;19717;42.614;23.418;2022-10-16T04:26:32;11.10;;;7.25;;
33357;SDS011;19717;42.614;23.418;2022-10-16T04:28:58;10.15;;;7.07;;
33357;SDS011;19717;42.614;23.418;2022-10-16T04:31:24;11.70;;;7.60;;
33357;SDS011;19717;42.614;23.418;2022-10-16T04:33:50;10.20;;;7.28;;
33357;SDS011;19717;42.614;23.418;2022-10-16T04:36:16;10.93;;;7.18;;
33357;SDS011;19717;42.614;23.418;2022-10-16T04:38:42;15.50;;;7.90;;
33357;SDS011;19717;42.614;23.418;2022-10-16T04:41:08;12.30;;;7.85;;
33357;SDS011;19717;42.614;23.418;2022-10-16T04:43:35;12.98;;;7.45;;
33357;SDS011;19717;42.614;23.418;2022-10-16T04:46:01;13.15;;;7.60;;
33357;SDS011;19717;42.614;23.418;2022-10-16T04:48:29;12.63;;;8.32;;
33357;SDS011;19717;42.614;23.418;2022-10-16T04:50:55;17.25;;;7.55;;
33357;SDS011;19717;42.614;23.418;2022-10-16T04:53:21;12.05;;;7.63;;
33357;SDS011;19717;42.614;23.418;2022-10-16T04:55:48;15.80;;;8.63;;
33357;SDS011;19717;42.614;23.418;2022-10-16T04:58:14;11.45;;;7.43;;
33357;SDS011;19717;42.614;23.418;2022-10-16T05:00:40;13.18;;;7.55;;
33357;SDS011;19717;42.614;23.418;2022-10-16T05:03:06;16.10;;;8.05;;
33357;SDS011;19717;42.614;23.418;2022-10-16T05:05:34;14.27;;;8.35;;
33357;SDS011;19717;42.614;23.418;2022-10-16T05:08:00;12.65;;;7.70;;
33357;SDS011;19717;42.614;23.418;2022-10-16T05:10:26;11.25;;;7.50;;
33357;SDS011;19717;42.614;23.418;2022-10-16T05:12:53;13.85;;;7.80;;
33357;SDS011;19717;42.614;23.418;2022-10-16T05:15:19;14.63;;;8.85;;
33357;SDS011;19717;42.614;23.418;2022-10-16T05:17:45;17.08;;;8.93;;
33357;SDS011;19717;42.614;23.418;2022-10-16T05:20:11;15.35;;;9.43;;
33357;SDS011;19717;42.614;23.418;2022-10-16T05:22:37;14.93;;;9.07;;
33357;SDS011;19717;42.614;23.418;2022-10-16T05:25:04;13.05;;;8.32;;
33357;SDS011;19717;42.614;23.418;2022-10-16T05:27:30;11.90;;;7.60;;
33357;SDS011;19717;42.614;23.418;2022-10-16T05:29:56;14.88;;;8.23;;
33357;SDS011;19717;42.614;23.418;2022-10-16T05:32:22;15.93;;;7.88;;
33357;SDS011;19717;42.614;23.418;2022-10-16T05:34:48;11.05;;;7.43;;
33357;SDS011;19717;42.614;23.418;2022-10-16T05:37:16;11.88;;;7.47;;
33357;SDS011;19717;42.614;23.418;2022-10-16T05:39:42;11.43;;;7.57;;
33357;SDS011;19717;42.614;23.418;2022-10-16T05:42:08;16.52;;;7.65;;
33357;SDS011;19717;42.614;23.418;2022-10-16T05:44:35;13.77;;;7.43;;
33357;SDS011;19717;42.614;23.418;2022-10-16T05:47:01;11.05;;;7.10;;
33357;SDS011;19717;42.614;23.418;2022-10-16T05:49:27;15.70;;;9.00;;
33357;SDS011;19717;42.614;23.418;2022-10-16T05:51:53;13.63;;;7.45;;
33357;SDS011;19717;42.614;23.418;2022-10-16T05:54:19;11.80;;;7.28;;
33357;SDS011;19717;42.614;23.418;2022-10-16T05:56:45;13.43;;;8.02;;
33357;SDS011;19717;42.614;23.418;2022-10-16T05:59:11;14.10;;;9.35;;
33357;SDS011;19717;42.614;23.418;2022-10-16T06:01:37;16.73;;;10.07;;
33357;SDS011;19717;42.614;23.418;2022-10-16T06:04:03;18.58;;;10.77;;
33357;SDS011;19717;42.614;23.418;2022-10-16T06:06:30;19.40;;;11.13;;
33357;SDS011;19717;42.614;23.418;2022-10-16T06:08:56;20.83;;;12.05;;
33357;SDS011;19717;42.614;23.418;2022-10-16T06:11:25;24.20;;;13.05;;
33357;SDS011;19717;42.614;23.418;2022-10-16T06:13:51;25.17;;;12.35;;
33357;SDS011;19717;42.614;23.418;2022-10-16T06:16:18;22.88;;;11.70;;
33357;SDS011;19717;42.614;23.418;2022-10-16T06:18:45;23.52;;;13.52;;
33357;SDS011;19717;42.614;23.418;2022-10-16T06:21:12;26.95;;;14.55;;
33357;SDS011;19717;42.614;23.418;2022-10-16T06:23:39;27.45;;;12.90;;
33357;SDS011;19717;42.614;23.418;2022-10-16T06:26:06;23.80;;;12.77;;
33357;SDS011;19717;42.614;23.418;2022-10-16T06:28:33;21.40;;;12.32;;
33357;SDS011;19717;42.614;23.418;2022-10-16T06:31:00;20.60;;;12.02;;
33357;SDS011;19717;42.614;23.418;2022-10-16T06:33:26;19.77;;;11.40;;
33357;SDS011;19717;42.614;23.418;2022-10-16T06:35:52;26.52;;;13.13;;
33357;SDS011;19717;42.614;23.418;2022-10-16T06:38:18;24.77;;;12.13;;
33357;SDS011;19717;42.614;23.418;2022-10-16T06:40:44;21.90;;;12.35;;
33357;SDS011;19717;42.614;23.418;2022-10-16T06:43:10;27.55;;;12.48;;
33357;SDS011;19717;42.614;23.418;2022-10-16T06:45:36;22.77;;;12.07;;
33357;SDS011;19717;42.614;23.418;2022-10-16T06:48:02;23.90;;;12.18;;
33357;SDS011;19717;42.614;23.418;2022-10-16T06:50:29;18.23;;;10.80;;
33357;SDS011;19717;42.614;23.418;2022-10-16T06:52:55;21.20;;;10.45;;
33357;SDS011;19717;42.614;23.418;2022-10-16T06:55:21;18.73;;;10.20;;
33357;SDS011;19717;42.614;23.418;2022-10-16T06:57:47;17.90;;;10.32;;
33357;SDS011;19717;42.614;23.418;2022-10-16T07:00:13;19.63;;;10.55;;
33357;SDS011;19717;42.614;23.418;2022-10-16T07:02:39;16.92;;;9.27;;
33357;SDS011;19717;42.614;23.418;2022-10-16T07:05:06;17.77;;;10.50;;
33357;SDS011;19717;42.614;23.418;2022-10-16T07:07:32;17.02;;;9.55;;
33357;SDS011;19717;42.614;23.418;2022-10-16T07:09:58;18.10;;;9.88;;
33357;SDS011;19717;42.614;23.418;2022-10-16T07:12:24;21.38;;;10.40;;
33357;SDS011;19717;42.614;23.418;2022-10-16T07:14:50;16.98;;;10.43;;
33357;SDS011;19717;42.614;23.418;2022-10-16T07:17:17;20.10;;;10.50;;
33357;SDS011;19717;42.614;23.418;2022-10-16T07:19:44;20.83;;;11.02;;
33357;SDS011;19717;42.614;23.418;2022-10-16T07:22:10;19.88;;;9.65;;
33357;SDS011;19717;42.614;23.418;2022-10-16T07:24:36;16.23;;;9.30;;
33357;SDS011;19717;42.614;23.418;2022-10-16T07:27:02;15.30;;;9.07;;
33357;SDS011;19717;42.614;23.418;2022-10-16T07:29:28;17.58;;;9.13;;
33357;SDS011;19717;42.614;23.418;2022-10-16T07:31:55;17.00;;;9.15;;
33357;SDS011;19717;42.614;23.418;2022-10-16T07:34:21;14.10;;;8.70;;
33357;SDS011;19717;42.614;23.418;2022-10-16T07:36:48;27.23;;;9.10;;
33357;SDS011;19717;42.614;23.418;2022-10-16T07:39:14;17.67;;;9.38;;
33357;SDS011;19717;42.614;23.418;2022-10-16T07:41:40;16.30;;;9.05;;
33357;SDS011;19717;42.614;23.418;2022-10-16T07:44:06;12.88;;;8.15;;
33357;SDS011;19717;42.614;23.418;2022-10-16T07:46:32;14.15;;;8.80;;
33357;SDS011;19717;42.614;23.418;2022-10-16T07:49:00;15.20;;;8.65;;
33357;SDS011;19717;42.614;23.418;2022-10-16T07:51:27;14.55;;;9.00;;
33357;SDS011;19717;42.614;23.418;2022-10-16T07:53:53;19.42;;;9.48;;
33357;SDS011;19717;42.614;23.418;2022-10-16T07:56:20;19.05;;;10.50;;
33357;SDS011;19717;42.614;23.418;2022-10-16T07:58:46;15.50;;;8.80;;
33357;SDS011;19717;42.614;23.418;2022-10-16T08:01:15;13.57;;;7.95;;
33357;SDS011;19717;42.614;23.418;2022-10-16T08:03:42;12.23;;;8.48;;
33357;SDS011;19717;42.614;23.418;2022-10-16T08:06:08;13.88;;;8.52;;
33357;SDS011;19717;42.614;23.418;2022-10-16T08:08:34;17.27;;;8.50;;
33357;SDS011;19717;42.614;23.418;2022-10-16T08:11:00;12.75;;;8.00;;
33357;SDS011;19717;42.614;23.418;2022-10-16T08:13:28;14.38;;;8.07;;
33357;SDS011;19717;42.614;23.418;2022-10-16T08:15:55;13.65;;;8.30;;
33357;SDS011;19717;42.614;23.418;2022-10-16T08:18:21;13.77;;;8.23;;
33357;SDS011;19717;42.614;23.418;2022-10-16T08:20:47;13.70;;;7.75;;
33357;SDS011;19717;42.614;23.418;2022-10-16T08:23:13;9.20;;;6.60;;
33357;SDS011;19717;42.614;23.418;2022-10-16T08:25:40;11.88;;;6.13;;
33357;SDS011;19717;42.614;23.418;2022-10-16T08:28:07;14.43;;;7.07;;
33357;SDS011;19717;42.614;23.418;2022-10-16T08:30:33;14.00;;;7.50;;
33357;SDS011;19717;42.614;23.418;2022-10-16T08:32:59;14.32;;;6.43;;
33357;SDS011;19717;42.614;23.418;2022-10-16T08:35:26;10.10;;;5.88;;
33357;SDS011;19717;42.614;23.418;2022-10-16T08:37:52;9.98;;;5.53;;
33357;SDS011;19717;42.614;23.418;2022-10-16T08:40:19;14.90;;;6.18;;
33357;SDS011;19717;42.614;23.418;2022-10-16T08:45:30;7.93;;;5.20;;
33357;SDS011;19717;42.614;23.418;2022-10-16T08:50:42;12.15;;;4.13;;
33357;SDS011;19717;42.614;23.418;2022-10-16T08:53:14;5.22;;;3.40;;
33357;SDS011;19717;42.614;23.418;2022-10-16T08:55:45;4.82;;;3.35;;
33357;SDS011;19717;42.614;23.418;2022-10-16T08:58:14;9.03;;;3.73;;
33357;SDS011;19717;42.614;23.418;2022-10-16T09:00:40;7.28;;;3.85;;
33357;SDS011;19717;42.614;23.418;2022-10-16T09:04:18;8.02;;;3.78;;
33357;SDS011;19717;42.614;23.418;2022-10-16T09:06:17;8.43;;;3.15;;
33357;SDS011;19717;42.614;23.418;2022-10-16T09:21:29;4.95;;;3.30;;
33357;SDS011;19717;42.614;23.418;2022-10-16T09:23:57;5.38;;;3.60;;
33357;SDS011;19717;42.614;23.418;2022-10-16T09:26:24;5.60;;;2.95;;
33357;SDS011;19717;42.614;23.418;2022-10-16T09:28:51;4.68;;;3.20;;
33357;SDS011;19717;42.614;23.418;2022-10-16T09:31:18;4.97;;;3.25;;
33357;SDS011;19717;42.614;23.418;2022-10-16T09:33:47;5.22;;;3.17;;
33357;SDS011;19717;42.614;23.418;2022-10-16T09:36:14;4.82;;;3.28;;
33357;SDS011;19717;42.614;23.418;2022-10-16T09:38:40;5.97;;;3.55;;
33357;SDS011;19717;42.614;23.418;2022-10-16T09:41:19;5.20;;;3.30;;
33357;SDS011;19717;42.614;23.418;2022-10-16T09:43:47;4.95;;;3.50;;
33357;SDS011;19717;42.614;23.418;2022-10-16T09:48:57;6.07;;;3.72;;
33357;SDS011;19717;42.614;23.418;2022-10-16T09:51:25;6.00;;;3.33;;
33357;SDS011;19717;42.614;23.418;2022-10-16T09:53:59;4.22;;;3.40;;
33357;SDS011;19717;42.614;23.418;2022-10-16T09:56:26;4.82;;;3.40;;
33357;SDS011;19717;42.614;23.418;2022-10-16T09:58:54;6.53;;;3.80;;
33357;SDS011;19717;42.614;23.418;2022-10-16T10:01:20;6.63;;;4.10;;
33357;SDS011;19717;42.614;23.418;2022-10-16T10:03:47;4.50;;;3.28;;
33357;SDS011;19717;42.614;23.418;2022-10-16T10:08:53;5.25;;;3.60;;
33357;SDS011;19717;42.614;23.418;2022-10-16T10:11:36;7.28;;;4.20;;
33357;SDS011;19717;42.614;23.418;2022-10-16T10:16:28;5.75;;;4.10;;
33357;SDS011;19717;42.614;23.418;2022-10-16T10:19:00;5.97;;;3.67;;
33357;SDS011;19717;42.614;23.418;2022-10-16T10:21:26;5.00;;;3.72;;
33357;SDS011;19717;42.614;23.418;2022-10-16T10:23:55;8.05;;;4.45;;
33357;SDS011;19717;42.614;23.418;2022-10-16T10:26:25;4.95;;;3.65;;
33357;SDS011;19717;42.614;23.418;2022-10-16T10:36:44;8.98;;;4.03;;
33357;SDS011;19717;42.614;23.418;2022-10-16T10:39:20;5.50;;;3.63;;
33357;SDS011;19717;42.614;23.418;2022-10-16T10:52:00;5.18;;;3.60;;
33357;SDS011;19717;42.614;23.418;2022-10-16T10:57:37;7.03;;;3.15;;
33357;SDS011;19717;42.614;23.418;2022-10-16T11:00:03;5.43;;;3.78;;
33357;SDS011;19717;42.614;23.418;2022-10-16T11:02:41;8.45;;;4.63;;
33357;SDS011;19717;42.614;23.418;2022-10-16T11:07:48;4.40;;;3.30;;
33357;SDS011;19717;42.614;23.418;2022-10-16T11:10:17;6.00;;;4.00;;
33357;SDS011;19717;42.614;23.418;2022-10-16T11:12:45;6.45;;;4.50;;
33357;SDS011;19717;42.614;23.418;2022-10-16T11:15:15;6.53;;;3.63;;
33357;SDS011;19717;42.614;23.418;2022-10-16T11:17:45;4.63;;;2.60;;
33357;SDS011;19717;42.614;23.418;2022-10-16T11:20:18;4.18;;;2.80;;
33357;SDS011;19717;42.614;23.418;2022-10-16T11:22:50;5.78;;;2.30;;
33357;SDS011;19717;42.614;23.418;2022-10-16T11:25:21;4.85;;;2.10;;
33357;SDS011;19717;42.614;23.418;2022-10-16T11:30:17;5.22;;;2.00;;
33357;SDS011;19717;42.614;23.418;2022-10-16T11:33:30;5.20;;;2.10;;
33357;SDS011;19717;42.614;23.418;2022-10-16T11:37:56;3.75;;;2.10;;
33357;SDS011;19717;42.614;23.418;2022-10-16T11:43:32;2.17;;;1.88;;
33357;SDS011;19717;42.614;23.418;2022-10-16T11:45:44;5.10;;;2.53;;
33357;SDS011;19717;42.614;23.418;2022-10-16T11:48:15;5.60;;;2.30;;
33357;SDS011;19717;42.614;23.418;2022-10-16T11:55:48;2.65;;;2.00;;
33357;SDS011;19717;42.614;23.418;2022-10-16T12:08:39;2.70;;;1.52;;
33357;SDS011;19717;42.614;23.418;2022-10-16T12:11:06;3.20;;;1.67;;
33357;SDS011;19717;42.614;23.418;2022-10-16T12:16:06;3.35;;;1.90;;
33357;SDS011;19717;42.614;23.418;2022-10-16T12:18:32;2.50;;;1.60;;
33357;SDS011;19717;42.614;23.418;2022-10-16T12:20:59;2.55;;;1.75;;
33357;SDS011;19717;42.614;23.418;2022-10-16T12:23:30;2.88;;;1.40;;
33357;SDS011;19717;42.614;23.418;2022-10-16T12:25:58;1.85;;;1.52;;
33357;SDS011;19717;42.614;23.418;2022-10-16T12:28:28;4.28;;;1.80;;
33357;SDS011;19717;42.614;23.418;2022-10-16T12:30:56;2.35;;;1.70;;
33357;SDS011;19717;42.614;23.418;2022-10-16T12:33:27;4.35;;;1.92;;
33357;SDS011;19717;42.614;23.418;2022-10-16T12:35:54;2.13;;;1.70;;
33357;SDS011;19717;42.614;23.418;2022-10-16T12:40:47;2.40;;;1.90;;
33357;SDS011;19717;42.614;23.418;2022-10-16T12:45:46;2.30;;;1.95;;
33357;SDS011;19717;42.614;23.418;2022-10-16T12:48:20;2.33;;;1.70;;
33357;SDS011;19717;42.614;23.418;2022-10-16T12:50:46;1.73;;;1.63;;
33357;SDS011;19717;42.614;23.418;2022-10-16T12:53:31;1.83;;;1.70;;
33357;SDS011;19717;42.614;23.418;2022-10-16T12:56:15;1.73;;;1.52;;
33357;SDS011;19717;42.614;23.418;2022-10-16T13:01:28;4.57;;;2.00;;
33357;SDS011;19717;42.614;23.418;2022-10-16T13:14:16;2.67;;;1.80;;
33357;SDS011;19717;42.614;23.418;2022-10-16T13:19:36;2.65;;;2.00;;
33357;SDS011;19717;42.614;23.418;2022-10-16T13:29:49;3.28;;;2.58;;
33357;SDS011;19717;42.614;23.418;2022-10-16T13:32:17;4.30;;;2.40;;
33357;SDS011;19717;42.614;23.418;2022-10-16T13:34:46;2.85;;;2.22;;
33357;SDS011;19717;42.614;23.418;2022-10-16T13:37:21;7.22;;;2.08;;
33357;SDS011;19717;42.614;23.418;2022-10-16T13:39:47;3.97;;;2.15;;
33357;SDS011;19717;42.614;23.418;2022-10-16T13:42:14;2.75;;;1.80;;
33357;SDS011;19717;42.614;23.418;2022-10-16T13:44:51;7.68;;;2.50;;
33357;SDS011;19717;42.614;23.418;2022-10-16T13:47:23;3.03;;;2.05;;
33357;SDS011;19717;42.614;23.418;2022-10-16T13:52:45;5.10;;;2.45;;
33357;SDS011;19717;42.614;23.418;2022-10-16T13:55:12;5.93;;;2.10;;
33357;SDS011;19717;42.614;23.418;2022-10-16T13:57:39;4.55;;;2.00;;
33357;SDS011;19717;42.614;23.418;2022-10-16T14:00:18;3.08;;;2.30;;
33357;SDS011;19717;42.614;23.418;2022-10-16T14:02:44;3.80;;;2.13;;
33357;SDS011;19717;42.614;23.418;2022-10-16T14:05:12;6.72;;;2.40;;
33357;SDS011;19717;42.614;23.418;2022-10-16T14:07:39;5.97;;;2.42;;
33357;SDS011;19717;42.614;23.418;2022-10-16T14:10:07;3.55;;;2.53;;
33357;SDS011;19717;42.614;23.418;2022-10-16T14:12:43;5.28;;;2.58;;
33357;SDS011;19717;42.614;23.418;2022-10-16T14:15:16;6.57;;;2.30;;
33357;SDS011;19717;42.614;23.418;2022-10-16T14:17:44;6.40;;;2.50;;
33357;SDS011;19717;42.614;23.418;2022-10-16T14:20:12;7.75;;;2.53;;
33357;SDS011;19717;42.614;23.418;2022-10-16T14:22:41;9.15;;;2.40;;
33357;SDS011;19717;42.614;23.418;2022-10-16T14:25:20;5.28;;;2.60;;
33357;SDS011;19717;42.614;23.418;2022-10-16T14:28:48;3.92;;;2.60;;
33357;SDS011;19717;42.614;23.418;2022-10-16T14:30:55;3.28;;;2.42;;
33357;SDS011;19717;42.614;23.418;2022-10-16T14:33:40;5.70;;;2.50;;
33357;SDS011;19717;42.614;23.418;2022-10-16T14:38:32;5.80;;;2.75;;
33357;SDS011;19717;42.614;23.418;2022-10-16T14:40:59;3.95;;;2.65;;
33357;SDS011;19717;42.614;23.418;2022-10-16T14:45:55;11.93;;;3.40;;
33357;SDS011;19717;42.614;23.418;2022-10-16T14:48:22;10.02;;;2.92;;
33357;SDS011;19717;42.614;23.418;2022-10-16T14:50:48;6.63;;;2.67;;
33357;SDS011;19717;42.614;23.418;2022-10-16T14:53:14;6.93;;;2.35;;
33357;SDS011;19717;42.614;23.418;2022-10-16T14:55:40;4.82;;;2.30;;
33357;SDS011;19717;42.614;23.418;2022-10-16T14:58:14;8.27;;;2.60;;
33357;SDS011;19717;42.614;23.418;2022-10-16T15:00:41;3.30;;;2.20;;
33357;SDS011;19717;42.614;23.418;2022-10-16T15:03:07;6.13;;;2.80;;
33357;SDS011;19717;42.614;23.418;2022-10-16T15:05:35;8.30;;;2.85;;
33357;SDS011;19717;42.614;23.418;2022-10-16T15:08:01;8.82;;;2.78;;
33357;SDS011;19717;42.614;23.418;2022-10-16T15:10:29;10.55;;;4.15;;
33357;SDS011;19717;42.614;23.418;2022-10-16T15:12:57;7.10;;;3.97;;
33357;SDS011;19717;42.614;23.418;2022-10-16T15:17:56;10.57;;;5.28;;
33357;SDS011;19717;42.614;23.418;2022-10-16T15:20:24;6.13;;;3.45;;
33357;SDS011;19717;42.614;23.418;2022-10-16T15:22:50;8.10;;;2.97;;
33357;SDS011;19717;42.614;23.418;2022-10-16T15:27:48;8.75;;;2.40;;
33357;SDS011;19717;42.614;23.418;2022-10-16T15:30:14;5.63;;;2.63;;
33357;SDS011;19717;42.614;23.418;2022-10-16T15:32:40;5.50;;;2.80;;
33357;SDS011;19717;42.614;23.418;2022-10-16T15:35:08;6.60;;;3.30;;
33357;SDS011;19717;42.614;23.418;2022-10-16T15:37:34;10.05;;;4.55;;
33357;SDS011;19717;42.614;23.418;2022-10-16T15:40:00;26.17;;;5.30;;
33357;SDS011;19717;42.614;23.418;2022-10-16T15:42:26;8.82;;;4.00;;
33357;SDS011;19717;42.614;23.418;2022-10-16T15:44:52;8.07;;;3.70;;
33357;SDS011;19717;42.614;23.418;2022-10-16T15:47:18;8.82;;;3.10;;
33357;SDS011;19717;42.614;23.418;2022-10-16T15:49:44;7.70;;;3.10;;
33357;SDS011;19717;42.614;23.418;2022-10-16T15:52:11;4.28;;;3.00;;
33357;SDS011;19717;42.614;23.418;2022-10-16T15:54:37;6.15;;;3.10;;
33357;SDS011;19717;42.614;23.418;2022-10-16T15:57:03;5.63;;;3.03;;
33357;SDS011;19717;42.614;23.418;2022-10-16T15:59:29;5.10;;;2.78;;
33357;SDS011;19717;42.614;23.418;2022-10-16T16:01:55;7.82;;;3.15;;
33357;SDS011;19717;42.614;23.418;2022-10-16T16:04:21;5.53;;;3.13;;
33357;SDS011;19717;42.614;23.418;2022-10-16T16:06:48;6.53;;;3.67;;
33357;SDS011;19717;42.614;23.418;2022-10-16T16:09:14;7.35;;;3.85;;
33357;SDS011;19717;42.614;23.418;2022-10-16T16:11:40;9.80;;;3.97;;
33357;SDS011;19717;42.614;23.418;2022-10-16T16:14:10;7.32;;;3.80;;
33357;SDS011;19717;42.614;23.418;2022-10-16T16:16:38;5.30;;;3.33;;
33357;SDS011;19717;42.614;23.418;2022-10-16T16:19:04;6.65;;;3.35;;
33357;SDS011;19717;42.614;23.418;2022-10-16T16:21:32;9.57;;;4.65;;
33357;SDS011;19717;42.614;23.418;2022-10-16T16:23:58;10.20;;;4.35;;
33357;SDS011;19717;42.614;23.418;2022-10-16T16:28:57;8.77;;;4.30;;
33357;SDS011;19717;42.614;23.418;2022-10-16T16:31:23;10.02;;;4.43;;
33357;SDS011;19717;42.614;23.418;2022-10-16T16:33:50;9.52;;;4.30;;
33357;SDS011;19717;42.614;23.418;2022-10-16T16:36:16;5.88;;;3.97;;
33357;SDS011;19717;42.614;23.418;2022-10-16T16:38:43;6.00;;;3.90;;
33357;SDS011;19717;42.614;23.418;2022-10-16T16:41:12;5.43;;;4.28;;
33357;SDS011;19717;42.614;23.418;2022-10-16T16:43:38;8.10;;;3.85;;